sensor_id;sensor_type;location;lat;lon;timestamp;P1;durP1;ratioP1;P2;durP2;ratioP2
33505;SDS011;19843;51.040;13.782;2023-10-09T00:02:07;3.20;;;1.67;;
33505;SDS011;19843;51.040;13.782;2023-10-09T00:04:35;3.25;;;1.75;;
33505;SDS011;19843;51.040;13.782;2023-10-09T00:07:04;3.80;;;1.73;;
33505;SDS011;19843;51.040;13.782;2023-10-09T00:09:36;3.33;;;1.65;;
33505;SDS011;19843;51.040;13.782;2023-10-09T00:12:15;3.75;;;1.88;;
33505;SDS011;19843;51.040;13.782;2023-10-09T00:14:49;1.63;;;1.40;;
33505;SDS011;19843;51.040;13.782;2023-10-09T00:17:22;1.90;;;1.60;;
33505;SDS011;19843;51.040;13.782;2023-10-09T00:19:57;1.83;;;1.70;;
33505;SDS011;19843;51.040;13.782;2023-10-09T00:22:34;4.50;;;1.95;;
33505;SDS011;19843;51.040;13.782;2023-10-09T00:25:09;3.85;;;2.05;;
33505;SDS011;19843;51.040;13.782;2023-10-09T00:27:38;3.15;;;1.45;;
33505;SDS011;19843;51.040;13.782;2023-10-09T00:30:09;3.20;;;1.45;;
33505;SDS011;19843;51.040;13.782;2023-10-09T00:32:41;1.80;;;1.27;;
33505;SDS011;19843;51.040;13.782;2023-10-09T00:35:17;1.95;;;1.50;;
33505;SDS011;19843;51.040;13.782;2023-10-09T00:38:04;4.25;;;2.13;;
33505;SDS011;19843;51.040;13.782;2023-10-09T00:40:42;3.85;;;1.60;;
33505;SDS011;19843;51.040;13.782;2023-10-09T00:43:19;2.13;;;1.60;;
33505;SDS011;19843;51.040;13.782;2023-10-09T00:45:46;1.55;;;1.40;;
33505;SDS011;19843;51.040;13.782;2023-10-09T00:48:17;2.97;;;1.98;;
33505;SDS011;19843;51.040;13.782;2023-10-09T00:50:50;2.38;;;1.88;;
33505;SDS011;19843;51.040;13.782;2023-10-09T00:53:20;2.10;;;1.60;;
33505;SDS011;19843;51.040;13.782;2023-10-09T00:55:58;4.63;;;1.70;;
33505;SDS011;19843;51.040;13.782;2023-10-09T00:58:33;1.58;;;1.42;;
33505;SDS011;19843;51.040;13.782;2023-10-09T01:01:02;2.90;;;1.60;;
33505;SDS011;19843;51.040;13.782;2023-10-09T01:03:31;3.08;;;1.60;;
33505;SDS011;19843;51.040;13.782;2023-10-09T01:06:01;3.25;;;1.42;;
33505;SDS011;19843;51.040;13.782;2023-10-09T01:08:42;3.92;;;2.00;;
33505;SDS011;19843;51.040;13.782;2023-10-09T01:11:16;2.20;;;1.60;;
33505;SDS011;19843;51.040;13.782;2023-10-09T01:13:47;2.03;;;1.40;;
33505;SDS011;19843;51.040;13.782;2023-10-09T01:16:38;2.53;;;1.42;;
33505;SDS011;19843;51.040;13.782;2023-10-09T01:19:07;1.65;;;1.55;;
33505;SDS011;19843;51.040;13.782;2023-10-09T01:21:46;2.25;;;1.33;;
33505;SDS011;19843;51.040;13.782;2023-10-09T01:24:16;3.22;;;1.65;;
33505;SDS011;19843;51.040;13.782;2023-10-09T01:26:46;2.78;;;1.60;;
33505;SDS011;19843;51.040;13.782;2023-10-09T01:29:16;2.00;;;1.52;;
33505;SDS011;19843;51.040;13.782;2023-10-09T01:31:46;2.25;;;1.70;;
33505;SDS011;19843;51.040;13.782;2023-10-09T01:34:21;2.47;;;1.90;;
33505;SDS011;19843;51.040;13.782;2023-10-09T01:37:05;2.00;;;1.75;;
33505;SDS011;19843;51.040;13.782;2023-10-09T01:39:39;2.38;;;1.95;;
33505;SDS011;19843;51.040;13.782;2023-10-09T01:42:08;3.15;;;2.08;;
33505;SDS011;19843;51.040;13.782;2023-10-09T01:44:37;1.65;;;1.48;;
33505;SDS011;19843;51.040;13.782;2023-10-09T01:47:09;5.15;;;1.88;;
33505;SDS011;19843;51.040;13.782;2023-10-09T01:49:40;2.58;;;1.60;;
33505;SDS011;19843;51.040;13.782;2023-10-09T01:52:10;1.60;;;1.20;;
33505;SDS011;19843;51.040;13.782;2023-10-09T01:54:43;2.35;;;1.98;;
33505;SDS011;19843;51.040;13.782;2023-10-09T01:57:15;3.40;;;1.90;;
33505;SDS011;19843;51.040;13.782;2023-10-09T01:59:49;2.20;;;1.60;;
33505;SDS011;19843;51.040;13.782;2023-10-09T02:02:20;3.08;;;1.98;;
33505;SDS011;19843;51.040;13.782;2023-10-09T02:05:00;2.15;;;1.48;;
33505;SDS011;19843;51.040;13.782;2023-10-09T02:07:36;3.30;;;1.90;;
33505;SDS011;19843;51.040;13.782;2023-10-09T02:10:19;2.97;;;1.80;;
33505;SDS011;19843;51.040;13.782;2023-10-09T02:12:58;2.03;;;1.60;;
33505;SDS011;19843;51.040;13.782;2023-10-09T02:15:33;3.45;;;1.98;;
33505;SDS011;19843;51.040;13.782;2023-10-09T02:18:18;2.78;;;1.90;;
33505;SDS011;19843;51.040;13.782;2023-10-09T02:21:07;2.70;;;1.90;;
33505;SDS011;19843;51.040;13.782;2023-10-09T02:23:40;2.67;;;2.28;;
33505;SDS011;19843;51.040;13.782;2023-10-09T02:26:14;3.03;;;2.30;;
33505;SDS011;19843;51.040;13.782;2023-10-09T02:28:46;2.65;;;1.73;;
33505;SDS011;19843;51.040;13.782;2023-10-09T02:31:19;2.00;;;1.27;;
33505;SDS011;19843;51.040;13.782;2023-10-09T02:33:49;2.75;;;1.98;;
33505;SDS011;19843;51.040;13.782;2023-10-09T02:36:19;2.22;;;1.73;;
33505;SDS011;19843;51.040;13.782;2023-10-09T02:38:47;3.05;;;2.20;;
33505;SDS011;19843;51.040;13.782;2023-10-09T02:41:16;2.25;;;2.00;;
33505;SDS011;19843;51.040;13.782;2023-10-09T02:43:54;4.35;;;2.08;;
33505;SDS011;19843;51.040;13.782;2023-10-09T02:46:22;1.95;;;1.55;;
33505;SDS011;19843;51.040;13.782;2023-10-09T02:48:56;1.83;;;1.48;;
33505;SDS011;19843;51.040;13.782;2023-10-09T02:51:25;2.45;;;1.92;;
33505;SDS011;19843;51.040;13.782;2023-10-09T02:54:00;3.08;;;1.80;;
33505;SDS011;19843;51.040;13.782;2023-10-09T02:56:45;2.13;;;1.75;;
33505;SDS011;19843;51.040;13.782;2023-10-09T02:59:21;1.67;;;1.30;;
33505;SDS011;19843;51.040;13.782;2023-10-09T03:01:49;1.88;;;1.58;;
33505;SDS011;19843;51.040;13.782;2023-10-09T03:04:19;4.10;;;1.75;;
33505;SDS011;19843;51.040;13.782;2023-10-09T03:06:50;4.22;;;1.90;;
33505;SDS011;19843;51.040;13.782;2023-10-09T03:09:19;2.72;;;1.80;;
33505;SDS011;19843;51.040;13.782;2023-10-09T03:11:54;3.13;;;1.52;;
33505;SDS011;19843;51.040;13.782;2023-10-09T03:14:29;3.17;;;2.00;;
33505;SDS011;19843;51.040;13.782;2023-10-09T03:16:57;2.13;;;1.90;;
33505;SDS011;19843;51.040;13.782;2023-10-09T03:19:25;3.10;;;1.65;;
33505;SDS011;19843;51.040;13.782;2023-10-09T03:21:54;2.50;;;1.63;;
33505;SDS011;19843;51.040;13.782;2023-10-09T03:24:23;4.35;;;1.83;;
33505;SDS011;19843;51.040;13.782;2023-10-09T03:26:51;2.55;;;1.67;;
33505;SDS011;19843;51.040;13.782;2023-10-09T03:29:23;2.42;;;1.80;;
33505;SDS011;19843;51.040;13.782;2023-10-09T03:31:51;2.65;;;2.03;;
33505;SDS011;19843;51.040;13.782;2023-10-09T03:34:19;2.92;;;2.08;;
33505;SDS011;19843;51.040;13.782;2023-10-09T03:36:47;2.45;;;2.13;;
33505;SDS011;19843;51.040;13.782;2023-10-09T03:39:17;3.03;;;2.05;;
33505;SDS011;19843;51.040;13.782;2023-10-09T03:41:51;2.70;;;1.98;;
33505;SDS011;19843;51.040;13.782;2023-10-09T03:44:20;3.20;;;2.80;;
33505;SDS011;19843;51.040;13.782;2023-10-09T03:46:49;2.30;;;2.03;;
33505;SDS011;19843;51.040;13.782;2023-10-09T03:49:17;2.35;;;1.92;;
33505;SDS011;19843;51.040;13.782;2023-10-09T03:51:49;2.80;;;2.50;;
33505;SDS011;19843;51.040;13.782;2023-10-09T03:54:17;4.15;;;3.20;;
33505;SDS011;19843;51.040;13.782;2023-10-09T03:56:47;4.72;;;3.08;;
33505;SDS011;19843;51.040;13.782;2023-10-09T03:59:16;3.90;;;3.00;;
33505;SDS011;19843;51.040;13.782;2023-10-09T04:01:46;3.42;;;2.58;;
33505;SDS011;19843;51.040;13.782;2023-10-09T04:04:16;3.50;;;3.05;;
33505;SDS011;19843;51.040;13.782;2023-10-09T04:06:44;4.15;;;2.80;;
33505;SDS011;19843;51.040;13.782;2023-10-09T04:09:12;4.40;;;3.17;;
33505;SDS011;19843;51.040;13.782;2023-10-09T04:11:55;4.18;;;2.95;;
33505;SDS011;19843;51.040;13.782;2023-10-09T04:14:46;4.35;;;2.90;;
33505;SDS011;19843;51.040;13.782;2023-10-09T04:17:20;6.18;;;3.45;;
33505;SDS011;19843;51.040;13.782;2023-10-09T04:20:03;4.35;;;3.13;;
33505;SDS011;19843;51.040;13.782;2023-10-09T04:22:49;5.18;;;3.28;;
33505;SDS011;19843;51.040;13.782;2023-10-09T04:25:18;4.05;;;3.00;;
33505;SDS011;19843;51.040;13.782;2023-10-09T04:27:53;3.72;;;3.33;;
33505;SDS011;19843;51.040;13.782;2023-10-09T04:30:23;4.15;;;3.13;;
33505;SDS011;19843;51.040;13.782;2023-10-09T04:32:52;3.60;;;3.25;;
33505;SDS011;19843;51.040;13.782;2023-10-09T04:35:30;4.60;;;2.92;;
33505;SDS011;19843;51.040;13.782;2023-10-09T04:37:59;3.90;;;2.90;;
33505;SDS011;19843;51.040;13.782;2023-10-09T04:40:31;4.35;;;2.80;;
33505;SDS011;19843;51.040;13.782;2023-10-09T04:43:14;4.20;;;2.95;;
33505;SDS011;19843;51.040;13.782;2023-10-09T04:45:46;4.97;;;3.75;;
33505;SDS011;19843;51.040;13.782;2023-10-09T04:48:33;4.13;;;2.75;;
33505;SDS011;19843;51.040;13.782;2023-10-09T04:51:06;5.55;;;3.30;;
33505;SDS011;19843;51.040;13.782;2023-10-09T04:54:00;5.50;;;2.83;;
33505;SDS011;19843;51.040;13.782;2023-10-09T04:56:39;3.30;;;2.72;;
33505;SDS011;19843;51.040;13.782;2023-10-09T04:59:18;4.63;;;3.20;;
33505;SDS011;19843;51.040;13.782;2023-10-09T05:01:50;5.43;;;2.65;;
33505;SDS011;19843;51.040;13.782;2023-10-09T05:04:25;7.63;;;2.95;;
33505;SDS011;19843;51.040;13.782;2023-10-09T05:07:07;2.72;;;2.47;;
33505;SDS011;19843;51.040;13.782;2023-10-09T05:09:50;4.57;;;2.65;;
33505;SDS011;19843;51.040;13.782;2023-10-09T05:12:23;4.05;;;2.90;;
33505;SDS011;19843;51.040;13.782;2023-10-09T05:14:55;4.63;;;3.40;;
33505;SDS011;19843;51.040;13.782;2023-10-09T05:17:35;3.83;;;2.90;;
33505;SDS011;19843;51.040;13.782;2023-10-09T05:20:05;3.28;;;2.70;;
33505;SDS011;19843;51.040;13.782;2023-10-09T05:23:04;3.40;;;2.95;;
33505;SDS011;19843;51.040;13.782;2023-10-09T05:25:49;4.28;;;3.40;;
33505;SDS011;19843;51.040;13.782;2023-10-09T05:28:25;3.70;;;2.83;;
33505;SDS011;19843;51.040;13.782;2023-10-09T05:30:57;3.90;;;3.25;;
33505;SDS011;19843;51.040;13.782;2023-10-09T05:33:34;3.60;;;2.97;;
33505;SDS011;19843;51.040;13.782;2023-10-09T05:36:04;5.05;;;2.88;;
33505;SDS011;19843;51.040;13.782;2023-10-09T05:38:45;5.80;;;3.38;;
33505;SDS011;19843;51.040;13.782;2023-10-09T05:41:24;4.00;;;2.85;;
33505;SDS011;19843;51.040;13.782;2023-10-09T05:44:04;4.63;;;3.22;;
33505;SDS011;19843;51.040;13.782;2023-10-09T05:46:57;4.60;;;3.33;;
33505;SDS011;19843;51.040;13.782;2023-10-09T05:49:45;6.13;;;3.55;;
33505;SDS011;19843;51.040;13.782;2023-10-09T05:52:21;4.90;;;3.50;;
33505;SDS011;19843;51.040;13.782;2023-10-09T05:55:17;3.78;;;3.20;;
33505;SDS011;19843;51.040;13.782;2023-10-09T05:58:07;4.78;;;3.08;;
33505;SDS011;19843;51.040;13.782;2023-10-09T06:00:55;7.22;;;3.60;;
33505;SDS011;19843;51.040;13.782;2023-10-09T06:03:40;5.07;;;3.25;;
33505;SDS011;19843;51.040;13.782;2023-10-09T06:06:16;7.85;;;4.10;;
33505;SDS011;19843;51.040;13.782;2023-10-09T06:08:59;4.53;;;3.40;;
33505;SDS011;19843;51.040;13.782;2023-10-09T06:11:47;5.07;;;3.33;;
33505;SDS011;19843;51.040;13.782;2023-10-09T06:14:21;5.60;;;3.50;;
33505;SDS011;19843;51.040;13.782;2023-10-09T06:16:51;3.92;;;3.28;;
33505;SDS011;19843;51.040;13.782;2023-10-09T06:19:49;4.85;;;3.88;;
33505;SDS011;19843;51.040;13.782;2023-10-09T06:22:24;5.00;;;3.47;;
33505;SDS011;19843;51.040;13.782;2023-10-09T06:25:06;5.93;;;4.22;;
33505;SDS011;19843;51.040;13.782;2023-10-09T06:27:39;4.97;;;3.33;;
33505;SDS011;19843;51.040;13.782;2023-10-09T06:30:24;7.78;;;4.82;;
33505;SDS011;19843;51.040;13.782;2023-10-09T06:32:53;6.05;;;4.45;;
33505;SDS011;19843;51.040;13.782;2023-10-09T06:35:46;4.97;;;4.18;;
33505;SDS011;19843;51.040;13.782;2023-10-09T06:38:20;5.63;;;3.80;;
33505;SDS011;19843;51.040;13.782;2023-10-09T06:41:00;7.18;;;4.50;;
33505;SDS011;19843;51.040;13.782;2023-10-09T06:44:02;4.82;;;3.78;;
33505;SDS011;19843;51.040;13.782;2023-10-09T06:46:33;7.75;;;4.68;;
33505;SDS011;19843;51.040;13.782;2023-10-09T06:49:11;7.82;;;4.15;;
33505;SDS011;19843;51.040;13.782;2023-10-09T06:51:53;8.07;;;4.63;;
33505;SDS011;19843;51.040;13.782;2023-10-09T06:54:22;6.15;;;4.10;;
33505;SDS011;19843;51.040;13.782;2023-10-09T06:56:52;6.38;;;3.67;;
33505;SDS011;19843;51.040;13.782;2023-10-09T06:59:41;5.45;;;3.78;;
33505;SDS011;19843;51.040;13.782;2023-10-09T07:02:28;4.47;;;3.65;;
33505;SDS011;19843;51.040;13.782;2023-10-09T07:05:12;5.82;;;4.35;;
33505;SDS011;19843;51.040;13.782;2023-10-09T07:07:44;7.22;;;4.55;;
33505;SDS011;19843;51.040;13.782;2023-10-09T07:10:21;7.35;;;4.20;;
33505;SDS011;19843;51.040;13.782;2023-10-09T07:12:59;4.78;;;4.10;;
33505;SDS011;19843;51.040;13.782;2023-10-09T07:15:30;7.10;;;4.32;;
33505;SDS011;19843;51.040;13.782;2023-10-09T07:18:15;6.25;;;4.15;;
33505;SDS011;19843;51.040;13.782;2023-10-09T07:20:49;8.07;;;3.90;;
33505;SDS011;19843;51.040;13.782;2023-10-09T07:23:27;6.50;;;4.50;;
33505;SDS011;19843;51.040;13.782;2023-10-09T07:26:03;7.85;;;5.10;;
33505;SDS011;19843;51.040;13.782;2023-10-09T07:28:45;6.53;;;4.55;;
33505;SDS011;19843;51.040;13.782;2023-10-09T07:31:20;7.25;;;4.78;;
33505;SDS011;19843;51.040;13.782;2023-10-09T07:34:06;7.00;;;3.90;;
33505;SDS011;19843;51.040;13.782;2023-10-09T07:36:55;4.85;;;4.03;;
33505;SDS011;19843;51.040;13.782;2023-10-09T07:39:23;6.32;;;4.40;;
33505;SDS011;19843;51.040;13.782;2023-10-09T07:42:01;5.90;;;4.28;;
33505;SDS011;19843;51.040;13.782;2023-10-09T07:44:45;5.18;;;3.92;;
33505;SDS011;19843;51.040;13.782;2023-10-09T07:47:20;5.38;;;3.90;;
33505;SDS011;19843;51.040;13.782;2023-10-09T07:50:09;5.43;;;4.05;;
33505;SDS011;19843;51.040;13.782;2023-10-09T07:52:37;6.15;;;4.40;;
33505;SDS011;19843;51.040;13.782;2023-10-09T07:55:09;5.90;;;5.00;;
33505;SDS011;19843;51.040;13.782;2023-10-09T07:57:52;6.72;;;4.55;;
33505;SDS011;19843;51.040;13.782;2023-10-09T08:00:20;5.45;;;4.82;;
33505;SDS011;19843;51.040;13.782;2023-10-09T08:03:04;7.65;;;4.88;;
33505;SDS011;19843;51.040;13.782;2023-10-09T08:05:50;6.88;;;4.53;;
33505;SDS011;19843;51.040;13.782;2023-10-09T08:08:20;7.65;;;4.45;;
33505;SDS011;19843;51.040;13.782;2023-10-09T08:11:07;5.57;;;4.35;;
33505;SDS011;19843;51.040;13.782;2023-10-09T08:13:52;6.03;;;4.68;;
33505;SDS011;19843;51.040;13.782;2023-10-09T08:16:28;5.35;;;3.95;;
33505;SDS011;19843;51.040;13.782;2023-10-09T08:19:04;6.28;;;4.35;;
33505;SDS011;19843;51.040;13.782;2023-10-09T08:21:58;6.68;;;4.57;;
33505;SDS011;19843;51.040;13.782;2023-10-09T08:24:57;6.32;;;4.82;;
33505;SDS011;19843;51.040;13.782;2023-10-09T08:27:25;5.70;;;4.40;;
33505;SDS011;19843;51.040;13.782;2023-10-09T08:30:13;5.88;;;4.47;;
33505;SDS011;19843;51.040;13.782;2023-10-09T08:32:55;7.03;;;4.90;;
33505;SDS011;19843;51.040;13.782;2023-10-09T08:35:32;7.20;;;5.43;;
33505;SDS011;19843;51.040;13.782;2023-10-09T08:38:09;6.35;;;4.68;;
33505;SDS011;19843;51.040;13.782;2023-10-09T08:40:37;6.63;;;4.60;;
33505;SDS011;19843;51.040;13.782;2023-10-09T08:43:08;7.32;;;5.15;;
33505;SDS011;19843;51.040;13.782;2023-10-09T08:45:37;5.63;;;4.55;;
33505;SDS011;19843;51.040;13.782;2023-10-09T08:48:07;8.68;;;5.43;;
33505;SDS011;19843;51.040;13.782;2023-10-09T08:50:40;8.07;;;5.22;;
33505;SDS011;19843;51.040;13.782;2023-10-09T08:53:09;5.90;;;4.68;;
33505;SDS011;19843;51.040;13.782;2023-10-09T08:55:37;5.55;;;4.63;;
33505;SDS011;19843;51.040;13.782;2023-10-09T08:58:06;8.07;;;5.43;;
33505;SDS011;19843;51.040;13.782;2023-10-09T09:00:39;7.93;;;5.15;;
33505;SDS011;19843;51.040;13.782;2023-10-09T09:03:12;7.82;;;6.10;;
33505;SDS011;19843;51.040;13.782;2023-10-09T09:05:45;7.53;;;5.13;;
33505;SDS011;19843;51.040;13.782;2023-10-09T09:08:22;7.65;;;5.53;;
33505;SDS011;19843;51.040;13.782;2023-10-09T09:10:58;5.35;;;4.20;;
33505;SDS011;19843;51.040;13.782;2023-10-09T09:13:41;6.88;;;4.70;;
33505;SDS011;19843;51.040;13.782;2023-10-09T09:16:15;6.93;;;5.00;;
33505;SDS011;19843;51.040;13.782;2023-10-09T09:18:49;6.82;;;4.40;;
33505;SDS011;19843;51.040;13.782;2023-10-09T09:21:24;7.57;;;5.35;;
33505;SDS011;19843;51.040;13.782;2023-10-09T09:23:54;6.38;;;4.47;;
33505;SDS011;19843;51.040;13.782;2023-10-09T09:26:33;6.43;;;5.03;;
33505;SDS011;19843;51.040;13.782;2023-10-09T09:29:04;7.28;;;5.00;;
33505;SDS011;19843;51.040;13.782;2023-10-09T09:31:33;8.25;;;5.50;;
33505;SDS011;19843;51.040;13.782;2023-10-09T09:34:05;7.63;;;5.38;;
33505;SDS011;19843;51.040;13.782;2023-10-09T09:36:53;6.75;;;4.40;;
33505;SDS011;19843;51.040;13.782;2023-10-09T09:39:24;8.68;;;5.03;;
33505;SDS011;19843;51.040;13.782;2023-10-09T09:42:10;7.57;;;4.35;;
33505;SDS011;19843;51.040;13.782;2023-10-09T09:44:40;7.25;;;5.22;;
33505;SDS011;19843;51.040;13.782;2023-10-09T09:47:12;7.25;;;4.35;;
33505;SDS011;19843;51.040;13.782;2023-10-09T09:49:50;8.85;;;5.63;;
33505;SDS011;19843;51.040;13.782;2023-10-09T09:52:20;7.22;;;5.53;;
33505;SDS011;19843;51.040;13.782;2023-10-09T09:54:51;11.63;;;6.22;;
33505;SDS011;19843;51.040;13.782;2023-10-09T09:57:18;7.72;;;6.75;;
33505;SDS011;19843;51.040;13.782;2023-10-09T09:59:52;6.05;;;4.25;;
33505;SDS011;19843;51.040;13.782;2023-10-09T10:02:23;6.03;;;4.60;;
33505;SDS011;19843;51.040;13.782;2023-10-09T10:04:56;6.57;;;4.95;;
33505;SDS011;19843;51.040;13.782;2023-10-09T10:07:27;5.05;;;3.50;;
33505;SDS011;19843;51.040;13.782;2023-10-09T10:09:57;6.00;;;4.40;;
33505;SDS011;19843;51.040;13.782;2023-10-09T10:18:24;7.55;;;3.72;;
33505;SDS011;19843;51.040;13.782;2023-10-09T10:21:11;6.50;;;4.40;;
33505;SDS011;19843;51.040;13.782;2023-10-09T10:23:44;4.10;;;3.70;;
33505;SDS011;19843;51.040;13.782;2023-10-09T10:26:17;6.80;;;4.43;;
33505;SDS011;19843;51.040;13.782;2023-10-09T10:31:55;4.07;;;2.97;;
33505;SDS011;19843;51.040;13.782;2023-10-09T10:34:24;5.20;;;3.53;;
33505;SDS011;19843;51.040;13.782;2023-10-09T10:36:52;4.63;;;3.30;;
33505;SDS011;19843;51.040;13.782;2023-10-09T10:39:26;5.50;;;3.00;;
33505;SDS011;19843;51.040;13.782;2023-10-09T10:42:14;6.38;;;3.67;;
33505;SDS011;19843;51.040;13.782;2023-10-09T10:45:00;5.00;;;3.53;;
33505;SDS011;19843;51.040;13.782;2023-10-09T10:47:41;7.63;;;3.42;;
33505;SDS011;19843;51.040;13.782;2023-10-09T10:50:09;5.60;;;3.88;;
33505;SDS011;19843;51.040;13.782;2023-10-09T10:53:07;4.85;;;3.17;;
33505;SDS011;19843;51.040;13.782;2023-10-09T10:55:57;5.68;;;3.53;;
33505;SDS011;19843;51.040;13.782;2023-10-09T10:58:51;6.88;;;3.90;;
33505;SDS011;19843;51.040;13.782;2023-10-09T11:01:38;5.53;;;4.18;;
33505;SDS011;19843;51.040;13.782;2023-10-09T11:04:20;4.80;;;3.67;;
33505;SDS011;19843;51.040;13.782;2023-10-09T11:07:07;5.70;;;3.42;;
33505;SDS011;19843;51.040;13.782;2023-10-09T11:09:45;4.82;;;3.70;;
33505;SDS011;19843;51.040;13.782;2023-10-09T11:12:43;5.40;;;3.83;;
33505;SDS011;19843;51.040;13.782;2023-10-09T11:15:42;5.07;;;2.90;;
33505;SDS011;19843;51.040;13.782;2023-10-09T11:18:22;4.10;;;3.42;;
33505;SDS011;19843;51.040;13.782;2023-10-09T11:20:53;5.93;;;3.70;;
33505;SDS011;19843;51.040;13.782;2023-10-09T11:23:46;4.78;;;3.17;;
33505;SDS011;19843;51.040;13.782;2023-10-09T11:26:25;6.25;;;4.22;;
33505;SDS011;19843;51.040;13.782;2023-10-09T11:29:09;6.07;;;4.03;;
33505;SDS011;19843;51.040;13.782;2023-10-09T11:31:59;5.03;;;3.28;;
33505;SDS011;19843;51.040;13.782;2023-10-09T11:34:27;4.88;;;3.85;;
33505;SDS011;19843;51.040;13.782;2023-10-09T11:36:59;3.67;;;2.92;;
33505;SDS011;19843;51.040;13.782;2023-10-09T11:39:28;11.13;;;3.35;;
33505;SDS011;19843;51.040;13.782;2023-10-09T11:42:04;5.35;;;3.50;;
33505;SDS011;19843;51.040;13.782;2023-10-09T11:44:37;5.22;;;3.22;;
33505;SDS011;19843;51.040;13.782;2023-10-09T11:47:07;5.53;;;3.50;;
33505;SDS011;19843;51.040;13.782;2023-10-09T11:49:50;5.65;;;3.85;;
33505;SDS011;19843;51.040;13.782;2023-10-09T11:52:36;5.05;;;3.63;;
33505;SDS011;19843;51.040;13.782;2023-10-09T11:55:35;5.00;;;3.53;;
33505;SDS011;19843;51.040;13.782;2023-10-09T11:58:04;6.35;;;3.50;;
33505;SDS011;19843;51.040;13.782;2023-10-09T12:00:34;7.30;;;3.90;;
33505;SDS011;19843;51.040;13.782;2023-10-09T12:03:14;8.05;;;4.65;;
33505;SDS011;19843;51.040;13.782;2023-10-09T12:05:43;7.07;;;4.80;;
33505;SDS011;19843;51.040;13.782;2023-10-09T12:08:11;5.90;;;4.07;;
33505;SDS011;19843;51.040;13.782;2023-10-09T12:10:41;8.90;;;5.03;;
33505;SDS011;19843;51.040;13.782;2023-10-09T12:13:10;8.73;;;5.55;;
33505;SDS011;19843;51.040;13.782;2023-10-09T12:15:39;8.32;;;6.13;;
33505;SDS011;19843;51.040;13.782;2023-10-09T12:18:07;8.70;;;5.10;;
33505;SDS011;19843;51.040;13.782;2023-10-09T12:20:41;7.18;;;5.03;;
33505;SDS011;19843;51.040;13.782;2023-10-09T12:23:16;8.23;;;5.60;;
33505;SDS011;19843;51.040;13.782;2023-10-09T12:25:44;6.35;;;4.30;;
33505;SDS011;19843;51.040;13.782;2023-10-09T12:28:12;7.05;;;4.68;;
33505;SDS011;19843;51.040;13.782;2023-10-09T12:30:41;8.95;;;5.45;;
33505;SDS011;19843;51.040;13.782;2023-10-09T12:33:09;6.10;;;4.43;;
33505;SDS011;19843;51.040;13.782;2023-10-09T12:35:39;7.20;;;4.60;;
33505;SDS011;19843;51.040;13.782;2023-10-09T12:38:07;7.25;;;4.97;;
33505;SDS011;19843;51.040;13.782;2023-10-09T12:40:38;9.30;;;4.93;;
33505;SDS011;19843;51.040;13.782;2023-10-09T12:43:08;8.85;;;4.88;;
33505;SDS011;19843;51.040;13.782;2023-10-09T12:45:43;10.95;;;4.88;;
33505;SDS011;19843;51.040;13.782;2023-10-09T12:48:11;7.03;;;5.15;;
33505;SDS011;19843;51.040;13.782;2023-10-09T12:50:40;8.20;;;5.13;;
33505;SDS011;19843;51.040;13.782;2023-10-09T12:53:11;7.60;;;5.45;;
33505;SDS011;19843;51.040;13.782;2023-10-09T12:55:45;11.25;;;5.35;;
33505;SDS011;19843;51.040;13.782;2023-10-09T12:58:13;6.90;;;5.10;;
33505;SDS011;19843;51.040;13.782;2023-10-09T13:00:43;6.65;;;4.63;;
33505;SDS011;19843;51.040;13.782;2023-10-09T13:03:15;6.65;;;4.40;;
33505;SDS011;19843;51.040;13.782;2023-10-09T13:05:49;5.40;;;4.53;;
33505;SDS011;19843;51.040;13.782;2023-10-09T13:08:21;6.93;;;4.47;;
33505;SDS011;19843;51.040;13.782;2023-10-09T13:10:51;5.93;;;4.45;;
33505;SDS011;19843;51.040;13.782;2023-10-09T13:13:26;5.93;;;4.07;;
33505;SDS011;19843;51.040;13.782;2023-10-09T13:16:08;5.50;;;3.92;;
33505;SDS011;19843;51.040;13.782;2023-10-09T13:18:38;5.47;;;3.95;;
33505;SDS011;19843;51.040;13.782;2023-10-09T13:21:07;6.60;;;4.28;;
33505;SDS011;19843;51.040;13.782;2023-10-09T13:23:34;7.20;;;4.47;;
33505;SDS011;19843;51.040;13.782;2023-10-09T13:26:14;5.72;;;4.72;;
33505;SDS011;19843;51.040;13.782;2023-10-09T13:28:48;6.03;;;3.97;;
33505;SDS011;19843;51.040;13.782;2023-10-09T13:31:18;7.30;;;4.68;;
33505;SDS011;19843;51.040;13.782;2023-10-09T13:33:48;8.65;;;4.20;;
33505;SDS011;19843;51.040;13.782;2023-10-09T13:36:20;6.57;;;4.03;;
33505;SDS011;19843;51.040;13.782;2023-10-09T13:38:54;5.20;;;3.58;;
33505;SDS011;19843;51.040;13.782;2023-10-09T13:41:22;5.60;;;3.60;;
33505;SDS011;19843;51.040;13.782;2023-10-09T13:43:52;6.60;;;4.20;;
33505;SDS011;19843;51.040;13.782;2023-10-09T13:46:21;8.23;;;4.70;;
33505;SDS011;19843;51.040;13.782;2023-10-09T13:48:49;5.90;;;4.40;;
33505;SDS011;19843;51.040;13.782;2023-10-09T13:51:18;7.55;;;4.38;;
33505;SDS011;19843;51.040;13.782;2023-10-09T13:53:50;5.65;;;3.85;;
33505;SDS011;19843;51.040;13.782;2023-10-09T13:56:18;6.85;;;4.40;;
33505;SDS011;19843;51.040;13.782;2023-10-09T13:58:47;20.75;;;5.20;;
33505;SDS011;19843;51.040;13.782;2023-10-09T14:01:17;4.85;;;3.78;;
33505;SDS011;19843;51.040;13.782;2023-10-09T14:03:55;6.72;;;5.18;;
33505;SDS011;19843;51.040;13.782;2023-10-09T14:06:26;6.88;;;5.68;;
33505;SDS011;19843;51.040;13.782;2023-10-09T14:09:01;8.27;;;5.80;;
33505;SDS011;19843;51.040;13.782;2023-10-09T14:11:31;7.57;;;5.32;;
33505;SDS011;19843;51.040;13.782;2023-10-09T14:13:58;7.28;;;5.05;;
33505;SDS011;19843;51.040;13.782;2023-10-09T14:16:37;7.20;;;4.90;;
33505;SDS011;19843;51.040;13.782;2023-10-09T14:19:10;7.63;;;5.30;;
33505;SDS011;19843;51.040;13.782;2023-10-09T14:21:40;7.10;;;4.43;;
33505;SDS011;19843;51.040;13.782;2023-10-09T14:24:08;9.63;;;5.95;;
33505;SDS011;19843;51.040;13.782;2023-10-09T14:26:44;8.40;;;7.13;;
33505;SDS011;19843;51.040;13.782;2023-10-09T14:29:13;7.03;;;5.20;;
33505;SDS011;19843;51.040;13.782;2023-10-09T14:31:43;15.98;;;9.77;;
33505;SDS011;19843;51.040;13.782;2023-10-09T14:34:17;9.68;;;8.02;;
33505;SDS011;19843;51.040;13.782;2023-10-09T14:36:44;6.13;;;5.53;;
33505;SDS011;19843;51.040;13.782;2023-10-09T14:39:12;6.28;;;4.72;;
33505;SDS011;19843;51.040;13.782;2023-10-09T14:41:45;4.93;;;3.72;;
33505;SDS011;19843;51.040;13.782;2023-10-09T14:44:12;6.38;;;3.85;;
33505;SDS011;19843;51.040;13.782;2023-10-09T14:46:43;5.97;;;3.92;;
33505;SDS011;19843;51.040;13.782;2023-10-09T14:49:10;5.75;;;4.38;;
33505;SDS011;19843;51.040;13.782;2023-10-09T14:51:43;6.85;;;3.60;;
33505;SDS011;19843;51.040;13.782;2023-10-09T14:54:12;4.38;;;3.78;;
33505;SDS011;19843;51.040;13.782;2023-10-09T14:56:44;5.22;;;3.67;;
33505;SDS011;19843;51.040;13.782;2023-10-09T14:59:12;5.90;;;3.47;;
33505;SDS011;19843;51.040;13.782;2023-10-09T15:01:40;4.47;;;3.60;;
33505;SDS011;19843;51.040;13.782;2023-10-09T15:04:08;5.95;;;4.13;;
33505;SDS011;19843;51.040;13.782;2023-10-09T15:06:42;9.40;;;4.15;;
33505;SDS011;19843;51.040;13.782;2023-10-09T15:09:10;5.07;;;3.50;;
33505;SDS011;19843;51.040;13.782;2023-10-09T15:11:48;6.20;;;4.35;;
33505;SDS011;19843;51.040;13.782;2023-10-09T15:14:16;5.82;;;3.95;;
33505;SDS011;19843;51.040;13.782;2023-10-09T15:16:45;4.60;;;3.00;;
33505;SDS011;19843;51.040;13.782;2023-10-09T15:19:13;4.22;;;3.08;;
33505;SDS011;19843;51.040;13.782;2023-10-09T15:21:44;4.13;;;2.92;;
33505;SDS011;19843;51.040;13.782;2023-10-09T15:24:11;7.78;;;3.20;;
33505;SDS011;19843;51.040;13.782;2023-10-09T15:26:44;3.35;;;2.35;;
33505;SDS011;19843;51.040;13.782;2023-10-09T15:29:18;3.10;;;2.58;;